Time;durP1;ratioP1;P1;durP2;ratioP2;P2;SDS_P1;SDS_P2;PMS_P1;PMS_P2;Temp;Humidity;BMP_temperature;BMP_pressure;BME280_temperature;BME280_humidity;BME280_pressure;Samples;Min_cycle;Max_cycle;Signal;HPM_P1;HPM_P2
2021/08/24 00:00:43;;;;;;;2.38;1.27;;;;;;;;;;4805238;29;20061;-71
2021/08/24 00:03:09;;;;;;;1.77;1.38;;;;;;;;;;4804045;29;20499;-72
2021/08/24 00:05:36;;;;;;;2.75;1.52;;;;;;;;;;4803858;29;20027;-72
2021/08/24 00:08:03;;;;;;;1.92;1.45;;;;;;;;;;4803940;29;20149;-72
2021/08/24 00:10:53;;;;;;;1.55;1.40;;;;;;;;;;4805140;29;20096;-73
2021/08/24 00:13:21;;;;;;;3.38;1.15;;;;;;;;;;4805165;29;20034;-73
2021/08/24 00:15:48;;;;;;;1.80;1.60;;;;;;;;;;4818561;29;20038;-71
2021/08/24 00:18:14;;;;;;;2.35;1.60;;;;;;;;;;4805236;29;20031;-72
2021/08/24 00:20:42;;;;;;;1.77;1.67;;;;;;;;;;4803516;29;20042;-72
2021/08/24 00:23:11;;;;;;;3.28;1.80;;;;;;;;;;4803752;29;20070;-74
2021/08/24 00:25:38;;;;;;;3.75;2.05;;;;;;;;;;4805055;29;20480;-72
2021/08/24 00:28:05;;;;;;;4.22;2.47;;;;;;;;;;4805076;29;20041;-72
2021/08/24 00:30:30;;;;;;;3.45;2.50;;;;;;;;;;4805138;29;20482;-71
2021/08/24 00:32:56;;;;;;;2.65;2.42;;;;;;;;;;4803513;29;20066;-72
2021/08/24 00:35:22;;;;;;;3.33;3.03;;;;;;;;;;4804901;29;20022;-72
2021/08/24 00:37:47;;;;;;;7.15;2.97;;;;;;;;;;4803228;29;20077;-72
2021/08/24 00:40:14;;;;;;;5.95;3.45;;;;;;;;;;4805152;29;20035;-72
2021/08/24 00:42:41;;;;;;;5.13;3.75;;;;;;;;;;4804325;29;20055;-71
2021/08/24 00:45:10;;;;;;;5.65;3.60;;;;;;;;;;4804657;29;20472;-72
2021/08/24 00:47:39;;;;;;;5.32;3.58;;;;;;;;;;4804604;29;20091;-72
2021/08/24 00:50:32;;;;;;;4.88;3.60;;;;;;;;;;4818182;29;20030;-72
2021/08/24 00:53:05;;;;;;;4.20;3.33;;;;;;;;;;4800017;29;20039;-72
2021/08/24 00:55:32;;;;;;;5.47;3.50;;;;;;;;;;4801958;29;20035;-72
2021/08/24 00:58:00;;;;;;;6.72;4.35;;;;;;;;;;4804356;29;20023;-72
2021/08/24 01:00:28;;;;;;;5.90;4.38;;;;;;;;;;4804531;29;20488;-72
2021/08/24 01:03:03;;;;;;;5.53;4.15;;;;;;;;;;4804462;29;20671;-72
2021/08/24 01:05:31;;;;;;;6.28;4.30;;;;;;;;;;4804492;29;20114;-71
2021/08/24 01:08:52;;;;;;;7.80;4.70;;;;;;;;;;4788118;29;20400;-72
2021/08/24 01:11:40;;;;;;;7.20;4.53;;;;;;;;;;4770845;29;20137;-71
2021/08/24 01:14:27;;;;;;;8.35;5.03;;;;;;;;;;4804076;29;20484;-73
2021/08/24 01:17:14;;;;;;;12.80;5.22;;;;;;;;;;4817686;29;20042;-73
2021/08/24 01:19:58;;;;;;;8.60;5.60;;;;;;;;;;4803886;29;20101;-74
2021/08/24 01:23:01;;;;;;;10.63;5.75;;;;;;;;;;4817725;29;20038;-73
2021/08/24 01:25:38;;;;;;;6.68;4.85;;;;;;;;;;4804207;29;20603;-74
2021/08/24 01:28:12;;;;;;;7.60;4.95;;;;;;;;;;4804446;29;20039;-71
2021/08/24 01:31:15;;;;;;;9.60;5.65;;;;;;;;;;4803777;29;20051;-71
2021/08/24 01:33:50;;;;;;;7.75;5.20;;;;;;;;;;4803673;29;20045;-72
2021/08/24 01:36:27;;;;;;;6.45;4.68;;;;;;;;;;4802417;29;20035;-73
2021/08/24 01:39:01;;;;;;;7.10;5.40;;;;;;;;;;4803625;29;20035;-71
2021/08/24 01:41:31;;;;;;;7.97;5.18;;;;;;;;;;4803632;29;20055;-72
2021/08/24 01:44:20;;;;;;;6.95;4.90;;;;;;;;;;4803565;29;20039;-72
2021/08/24 01:46:59;;;;;;;7.05;4.60;;;;;;;;;;4803858;29;20492;-73
2021/08/24 01:49:56;;;;;;;7.80;4.72;;;;;;;;;;4817885;29;20095;-72
2021/08/24 01:52:25;;;;;;;6.13;4.05;;;;;;;;;;4774006;29;20061;-72
2021/08/24 01:55:00;;;;;;;9.27;4.75;;;;;;;;;;4803806;29;20035;-73
2021/08/24 01:57:36;;;;;;;6.45;4.30;;;;;;;;;;4803902;29;20034;-71
2021/08/24 02:00:11;;;;;;;6.13;4.07;;;;;;;;;;4803551;29;20495;-72
2021/08/24 02:02:46;;;;;;;5.88;4.35;;;;;;;;;;4817460;29;20746;-72
2021/08/24 02:05:14;;;;;;;6.03;4.18;;;;;;;;;;4803119;29;20031;-73
2021/08/24 02:07:41;;;;;;;4.78;3.70;;;;;;;;;;4802959;29;20027;-73
2021/08/24 02:10:15;;;;;;;8.00;4.50;;;;;;;;;;4801972;29;20495;-73
2021/08/24 02:12:45;;;;;;;6.07;4.75;;;;;;;;;;4801658;29;20039;-72
2021/08/24 02:15:12;;;;;;;5.60;4.35;;;;;;;;;;4803220;29;20039;-73
2021/08/24 02:17:40;;;;;;;5.07;3.67;;;;;;;;;;4803366;29;20066;-71
2021/08/24 02:20:26;;;;;;;6.65;3.78;;;;;;;;;;4803248;29;20042;-71
2021/08/24 02:22:58;;;;;;;6.00;3.65;;;;;;;;;;4803956;29;20429;-72
2021/08/24 02:25:30;;;;;;;6.07;4.13;;;;;;;;;;4802296;29;20087;-73
2021/08/24 02:28:06;;;;;;;5.25;3.58;;;;;;;;;;4801630;29;20027;-72
2021/08/24 02:30:38;;;;;;;4.60;3.63;;;;;;;;;;4802089;29;20433;-72
2021/08/24 02:33:05;;;;;;;7.22;4.55;;;;;;;;;;4801531;29;20038;-73
2021/08/24 02:35:37;;;;;;;9.23;5.25;;;;;;;;;;4801542;29;20072;-72
2021/08/24 02:38:19;;;;;;;;;;;;;;;;;;4801827;29;20034;-72
2021/08/24 02:40:53;;;;;;;7.32;4.88;;;;;;;;;;4802660;29;19969;-72
2021/08/24 02:43:33;;;;;;;6.05;4.55;;;;;;;;;;4802730;29;20137;-73
2021/08/24 02:46:36;;;;;;;5.20;4.32;;;;;;;;;;4802751;29;20041;-73
2021/08/24 02:49:09;;;;;;;7.18;5.18;;;;;;;;;;4786577;29;20078;-73
2021/08/24 02:51:35;;;;;;;7.82;5.10;;;;;;;;;;4801418;29;20037;-72
2021/08/24 02:54:16;;;;;;;5.53;4.40;;;;;;;;;;4802409;29;20033;-72
2021/08/24 02:56:42;;;;;;;9.27;7.37;;;;;;;;;;4813119;29;20117;-74
2021/08/24 02:59:08;;;;;;;7.45;5.22;;;;;;;;;;4786124;29;20362;-72
2021/08/24 03:01:35;;;;;;;5.57;4.35;;;;;;;;;;4802467;29;20066;-72
2021/08/24 03:04:00;;;;;;;7.15;4.40;;;;;;;;;;4802780;29;20031;-73
2021/08/24 03:06:27;;;;;;;5.65;4.20;;;;;;;;;;4785877;29;20038;-72
2021/08/24 03:08:53;;;;;;;7.10;4.63;;;;;;;;;;4801369;29;20034;-72
2021/08/24 03:11:27;;;;;;;5.78;4.30;;;;;;;;;;4785813;29;20638;-72
2021/08/24 03:14:10;;;;;;;5.60;4.50;;;;;;;;;;4801708;29;20050;-71
2021/08/24 03:16:40;;;;;;;5.53;4.07;;;;;;;;;;4785849;29;20027;-72
2021/08/24 03:19:11;;;;;;;7.72;4.93;;;;;;;;;;4804579;29;20510;-73
2021/08/24 03:21:38;;;;;;;6.65;5.13;;;;;;;;;;4789564;29;20069;-73
2021/08/24 03:24:09;;;;;;;8.27;4.72;;;;;;;;;;4805671;29;20114;-72
2021/08/24 03:26:38;;;;;;;6.47;5.03;;;;;;;;;;4790001;29;20119;-73
2021/08/24 03:29:16;;;;;;;6.47;4.65;;;;;;;;;;4789069;29;20491;-73
2021/08/24 03:31:45;;;;;;;6.43;4.60;;;;;;;;;;4805799;29;20545;-73
2021/08/24 03:34:10;;;;;;;5.70;4.35;;;;;;;;;;4805809;29;20046;-73
2021/08/24 03:36:36;;;;;;;6.45;4.50;;;;;;;;;;4804674;29;20045;-72
2021/08/24 03:39:03;;;;;;;5.47;4.18;;;;;;;;;;4805819;29;20043;-74
2021/08/24 03:41:29;;;;;;;5.85;4.60;;;;;;;;;;4806050;29;20058;-73
2021/08/24 03:43:55;;;;;;;4.95;4.07;;;;;;;;;;4804297;29;20030;-72
2021/08/24 03:46:20;;;;;;;7.57;4.60;;;;;;;;;;4805716;29;20087;-72
2021/08/24 03:48:46;;;;;;;5.32;3.60;;;;;;;;;;4805470;29;20472;-71
2021/08/24 03:51:13;;;;;;;7.65;3.72;;;;;;;;;;4805788;29;20061;-73
2021/08/24 03:53:38;;;;;;;5.43;4.15;;;;;;;;;;4789370;29;20035;-73
2021/08/24 03:56:06;;;;;;;7.57;4.30;;;;;;;;;;4788978;29;20049;-72
2021/08/24 03:58:32;;;;;;;8.30;4.20;;;;;;;;;;4805514;29;20065;-73
2021/08/24 04:00:58;;;;;;;5.38;3.80;;;;;;;;;;4788806;29;20415;-73
2021/08/24 04:03:23;;;;;;;5.30;3.88;;;;;;;;;;4805065;29;20253;-74
2021/08/24 04:05:58;;;;;;;7.18;3.70;;;;;;;;;;4804975;29;20031;-73
2021/08/24 04:08:23;;;;;;;5.35;3.15;;;;;;;;;;4805459;29;20030;-73
2021/08/24 04:10:49;;;;;;;4.05;3.63;;;;;;;;;;4788819;29;20043;-73
2021/08/24 04:13:14;;;;;;;5.13;3.78;;;;;;;;;;4805712;29;20066;-72
2021/08/24 04:15:40;;;;;;;6.88;4.00;;;;;;;;;;4789113;29;20441;-72
2021/08/24 04:18:05;;;;;;;8.13;3.92;;;;;;;;;;4788691;29;20039;-73
2021/08/24 04:20:32;;;;;;;3.22;2.78;;;;;;;;;;4805726;29;20035;-72
2021/08/24 04:22:57;;;;;;;4.68;3.33;;;;;;;;;;4805219;29;20038;-72
2021/08/24 04:25:23;;;;;;;4.18;2.75;;;;;;;;;;4805165;29;20033;-72
2021/08/24 04:27:48;;;;;;;5.75;3.42;;;;;;;;;;4804832;29;20485;-73
2021/08/24 04:30:14;;;;;;;3.58;2.92;;;;;;;;;;4804685;29;20070;-73
2021/08/24 04:32:43;;;;;;;5.22;3.03;;;;;;;;;;4788749;29;20034;-73
2021/08/24 04:35:09;;;;;;;4.03;2.85;;;;;;;;;;4804392;29;20113;-73
2021/08/24 04:37:35;;;;;;;4.93;2.65;;;;;;;;;;4788248;29;20138;-74
2021/08/24 04:40:01;;;;;;;4.65;2.40;;;;;;;;;;4804801;29;20027;-73
2021/08/24 04:42:26;;;;;;;3.97;2.47;;;;;;;;;;4788341;29;20416;-72
2021/08/24 04:44:52;;;;;;;2.28;2.08;;;;;;;;;;4804679;29;20042;-73
2021/08/24 04:47:17;;;;;;;4.38;2.40;;;;;;;;;;4788314;29;20042;-73
2021/08/24 04:49:43;;;;;;;4.05;2.03;;;;;;;;;;4788346;29;20115;-73
2021/08/24 04:52:08;;;;;;;5.25;2.35;;;;;;;;;;4787990;29;20492;-73
2021/08/24 04:54:34;;;;;;;4.45;3.08;;;;;;;;;;4788382;29;20039;-72
2021/08/24 04:57:04;;;;;;;4.63;2.58;;;;;;;;;;4804325;29;20066;-72
2021/08/24 04:59:30;;;;;;;3.53;2.80;;;;;;;;;;4788052;29;20035;-72
2021/08/24 05:01:55;;;;;;;5.97;3.53;;;;;;;;;;4787902;29;20061;-72
2021/08/24 05:04:21;;;;;;;5.07;2.72;;;;;;;;;;4788027;29;20126;-72
2021/08/24 05:06:47;;;;;;;3.75;2.72;;;;;;;;;;4804213;29;20030;-73
2021/08/24 05:09:12;;;;;;;4.07;2.80;;;;;;;;;;4804079;29;20476;-72
2021/08/24 05:11:38;;;;;;;3.45;2.60;;;;;;;;;;4804080;29;20062;-73
2021/08/24 05:14:03;;;;;;;2.95;2.63;;;;;;;;;;4803988;29;20038;-73
2021/08/24 05:16:29;;;;;;;5.88;3.35;;;;;;;;;;4802787;29;20496;-72
2021/08/24 05:18:54;;;;;;;3.55;2.80;;;;;;;;;;4787338;29;20549;-73
2021/08/24 05:21:20;;;;;;;5.65;2.63;;;;;;;;;;4787562;29;20342;-73
2021/08/24 05:23:46;;;;;;;6.07;2.38;;;;;;;;;;4787503;29;20038;-73
2021/08/24 05:26:17;;;;;;;3.60;3.00;;;;;;;;;;4803722;29;20039;-73
2021/08/24 05:28:44;;;;;;;7.97;3.10;;;;;;;;;;4787943;29;20056;-73
2021/08/24 05:31:11;;;;;;;4.07;3.35;;;;;;;;;;4803721;29;20038;-72
2021/08/24 05:33:37;;;;;;;10.10;3.65;;;;;;;;;;4803725;29;20031;-74
2021/08/24 05:36:03;;;;;;;10.02;4.65;;;;;;;;;;4802915;29;20034;-74
2021/08/24 05:38:31;;;;;;;12.75;6.25;;;;;;;;;;4802210;29;20484;-75
2021/08/24 05:40:56;;;;;;;10.48;5.82;;;;;;;;;;4800827;29;20109;-74
2021/08/24 05:43:23;;;;;;;6.93;5.00;;;;;;;;;;4802792;29;20512;-73
2021/08/24 05:46:02;;;;;;;8.30;5.95;;;;;;;;;;4785150;29;20468;-73
2021/08/24 05:48:29;;;;;;;7.10;5.00;;;;;;;;;;4793471;29;20075;-75
2021/08/24 05:50:55;;;;;;;8.20;6.05;;;;;;;;;;4803948;29;20049;-73
2021/08/24 05:53:20;;;;;;;11.02;5.78;;;;;;;;;;4805005;29;20571;-72
2021/08/24 05:55:46;;;;;;;9.18;6.53;;;;;;;;;;4788754;29;20034;-74
2021/08/24 05:58:12;;;;;;;9.52;6.40;;;;;;;;;;4787557;29;20480;-75
2021/08/24 06:00:38;;;;;;;10.00;6.63;;;;;;;;;;4803245;29;20018;-74
2021/08/24 06:03:04;;;;;;;19.33;7.72;;;;;;;;;;4803239;29;20041;-74
2021/08/24 06:05:29;;;;;;;13.93;8.43;;;;;;;;;;4786822;29;20058;-74
2021/08/24 06:07:55;;;;;;;15.55;9.07;;;;;;;;;;4803012;29;20051;-73
2021/08/24 06:10:21;;;;;;;17.65;10.23;;;;;;;;;;4802490;29;20031;-73
2021/08/24 06:12:46;;;;;;;15.15;10.88;;;;;;;;;;4787205;29;20043;-74
2021/08/24 06:15:14;;;;;;;12.10;9.52;;;;;;;;;;4801140;29;20029;-74
2021/08/24 06:17:41;;;;;;;12.55;9.85;;;;;;;;;;4799358;29;20038;-74
2021/08/24 06:20:08;;;;;;;18.50;12.82;;;;;;;;;;4814647;29;20034;-74
2021/08/24 06:22:35;;;;;;;14.65;10.25;;;;;;;;;;4809681;29;20022;-75
2021/08/24 06:25:00;;;;;;;21.45;10.93;;;;;;;;;;4801130;29;20030;-74
2021/08/24 06:27:26;;;;;;;19.05;11.02;;;;;;;;;;4784303;29;20029;-75
2021/08/24 06:29:52;;;;;;;21.50;11.95;;;;;;;;;;4786662;29;20034;-74
2021/08/24 06:32:33;;;;;;;20.20;12.07;;;;;;;;;;4780599;29;20138;-73
2021/08/24 06:34:59;;;;;;;;;;;;;;;;;;4796581;29;20151;-74
2021/08/24 06:37:26;;;;;;;20.17;12.25;;;;;;;;;;4812870;29;20358;-72
2021/08/24 06:39:53;;;;;;;18.52;11.48;;;;;;;;;;4791414;29;20038;-75
2021/08/24 06:42:19;;;;;;;21.08;12.10;;;;;;;;;;4779979;29;20059;-74
2021/08/24 06:44:45;;;;;;;17.35;9.98;;;;;;;;;;4788464;29;20660;-74
2021/08/24 06:47:12;;;;;;;16.02;11.18;;;;;;;;;;4782094;29;20049;-73
2021/08/24 06:49:38;;;;;;;20.13;10.52;;;;;;;;;;4781776;29;20080;-74
2021/08/24 06:52:05;;;;;;;17.65;11.60;;;;;;;;;;4749331;29;20190;-75
2021/08/24 06:54:32;;;;;;;17.23;11.10;;;;;;;;;;4786416;29;21456;-74
2021/08/24 06:57:03;;;;;;;18.92;12.00;;;;;;;;;;4774417;29;20039;-74
2021/08/24 06:59:29;;;;;;;18.67;11.45;;;;;;;;;;4777436;29;20494;-73
2021/08/24 07:01:57;;;;;;;18.05;10.88;;;;;;;;;;4775084;29;20846;-73
2021/08/24 07:04:25;;;;;;;16.65;10.63;;;;;;;;;;4793869;29;20035;-74
2021/08/24 07:06:53;;;;;;;18.73;11.25;;;;;;;;;;4770805;29;20118;-74
2021/08/24 07:09:19;;;;;;;17.67;10.93;;;;;;;;;;4771206;29;20054;-73
2021/08/24 07:11:45;;;;;;;15.48;11.38;;;;;;;;;;4771220;29;20083;-75
2021/08/24 07:14:11;;;;;;;17.70;11.60;;;;;;;;;;4773744;29;20039;-74
2021/08/24 07:16:42;;;;;;;17.70;11.27;;;;;;;;;;4769050;29;20046;-73
2021/08/24 07:19:11;;;;;;;18.95;10.90;;;;;;;;;;4776834;29;20921;-75
2021/08/24 07:21:36;;;;;;;19.77;11.68;;;;;;;;;;4773168;29;20531;-75
2021/08/24 07:24:07;;;;;;;18.58;10.82;;;;;;;;;;4775510;29;20033;-74
2021/08/24 07:26:33;;;;;;;17.65;11.13;;;;;;;;;;4778564;29;20071;-75
2021/08/24 07:28:58;;;;;;;20.45;10.25;;;;;;;;;;4772926;29;20171;-73
2021/08/24 07:31:24;;;;;;;14.40;10.82;;;;;;;;;;4764443;29;20047;-74
2021/08/24 07:33:50;;;;;;;16.60;10.82;;;;;;;;;;4761914;30;20507;-73
2021/08/24 07:36:17;;;;;;;19.25;11.63;;;;;;;;;;4775717;29;20043;-74
2021/08/24 07:38:44;;;;;;;21.48;10.68;;;;;;;;;;4780995;29;20082;-75
2021/08/24 07:41:10;;;;;;;15.38;10.32;;;;;;;;;;4775160;29;20042;-73
2021/08/24 07:43:37;;;;;;;16.38;11.88;;;;;;;;;;4795021;29;20039;-74
2021/08/24 07:46:03;;;;;;;19.83;12.40;;;;;;;;;;4793618;29;20035;-73
2021/08/24 07:48:29;;;;;;;15.32;10.77;;;;;;;;;;4789021;29;20038;-74
2021/08/24 07:50:56;;;;;;;16.05;10.45;;;;;;;;;;4782395;29;20034;-75
2021/08/24 07:53:22;;;;;;;14.20;9.80;;;;;;;;;;4796086;29;20484;-73
2021/08/24 07:55:48;;;;;;;17.95;11.10;;;;;;;;;;4794411;29;20590;-74
2021/08/24 07:58:14;;;;;;;13.05;9.43;;;;;;;;;;4785320;29;20077;-75
2021/08/24 08:00:39;;;;;;;16.42;11.27;;;;;;;;;;4773499;29;20026;-74
2021/08/24 08:03:05;;;;;;;15.93;10.23;;;;;;;;;;4787767;29;20031;-74
2021/08/24 08:05:31;;;;;;;15.98;10.95;;;;;;;;;;4807203;29;20479;-74
2021/08/24 08:07:57;;;;;;;20.65;17.80;;;;;;;;;;4799657;29;20130;-74
2021/08/24 08:10:23;;;;;;;15.38;10.77;;;;;;;;;;4784472;29;20466;-75
2021/08/24 08:12:49;;;;;;;19.05;9.65;;;;;;;;;;4787298;29;20106;-75
2021/08/24 08:15:16;;;;;;;20.17;12.23;;;;;;;;;;4802050;29;20096;-73
2021/08/24 08:17:44;;;;;;;11.93;8.20;;;;;;;;;;4785748;29;20031;-75
2021/08/24 08:20:10;;;;;;;11.80;8.65;;;;;;;;;;4798604;29;20145;-76
2021/08/24 08:22:38;;;;;;;14.13;10.43;;;;;;;;;;4799472;29;20114;-75
2021/08/24 08:25:06;;;;;;;13.98;9.52;;;;;;;;;;4774240;29;20027;-75
2021/08/24 08:27:32;;;;;;;13.38;9.23;;;;;;;;;;4791000;29;20130;-75
2021/08/24 08:29:59;;;;;;;13.23;8.05;;;;;;;;;;4783232;29;20438;-76
2021/08/24 08:32:32;;;;;;;16.08;9.90;;;;;;;;;;4786309;29;20175;-74
2021/08/24 08:34:58;;;;;;;13.57;9.10;;;;;;;;;;4797254;29;20099;-74
2021/08/24 08:37:24;;;;;;;16.42;9.13;;;;;;;;;;4798104;29;20551;-75
2021/08/24 08:39:50;;;;;;;10.75;8.05;;;;;;;;;;4783826;29;20035;-73
2021/08/24 08:42:27;;;;;;;11.18;8.32;;;;;;;;;;4797870;29;20436;-74
2021/08/24 08:45:06;;;;;;;17.30;8.55;;;;;;;;;;4804588;29;20043;-74
2021/08/24 08:47:50;;;;;;;14.52;7.93;;;;;;;;;;4798176;29;20058;-74
2021/08/24 08:50:49;;;;;;;18.20;9.07;;;;;;;;;;4798650;29;20154;-74
2021/08/24 08:53:30;;;;;;;13.88;7.50;;;;;;;;;;4796223;29;20041;-74
2021/08/24 08:56:27;;;;;;;12.18;8.82;;;;;;;;;;4794196;29;20102;-75
2021/08/24 08:59:02;;;;;;;18.45;8.20;;;;;;;;;;4802362;29;20038;-74
2021/08/24 09:01:48;;;;;;;15.38;8.57;;;;;;;;;;4799952;29;20043;-73
2021/08/24 09:04:36;;;;;;;14.52;7.95;;;;;;;;;;4804304;29;20062;-73
2021/08/24 09:07:07;;;;;;;14.13;8.10;;;;;;;;;;4795474;29;20123;-76
2021/08/24 09:09:34;;;;;;;10.30;7.80;;;;;;;;;;4790621;29;20046;-74
2021/08/24 09:12:00;;;;;;;15.93;8.05;;;;;;;;;;4787581;29;20046;-75
2021/08/24 09:14:41;;;;;;;14.43;8.40;;;;;;;;;;4784067;29;20053;-74
2021/08/24 09:17:30;;;;;;;12.82;8.60;;;;;;;;;;4795453;29;20499;-74
2021/08/24 09:20:32;;;;;;;13.60;8.75;;;;;;;;;;4789354;29;20553;-75
2021/08/24 09:23:02;;;;;;;13.90;9.25;;;;;;;;;;4796520;29;20030;-74
2021/08/24 09:26:00;;;;;;;15.48;9.20;;;;;;;;;;4796378;29;20033;-75
2021/08/24 09:28:30;;;;;;;16.30;9.45;;;;;;;;;;4797376;29;20039;-75
2021/08/24 09:30:56;;;;;;;13.05;8.95;;;;;;;;;;4802000;29;20134;-75
2021/08/24 09:33:23;;;;;;;16.10;9.88;;;;;;;;;;4783136;29;20035;-73
2021/08/24 09:35:49;;;;;;;19.60;13.90;;;;;;;;;;4785975;29;20051;-75
2021/08/24 09:38:20;;;;;;;14.25;9.25;;;;;;;;;;4798194;29;20039;-74
2021/08/24 09:40:51;;;;;;;15.45;9.57;;;;;;;;;;4793455;29;20034;-74
2021/08/24 09:43:21;;;;;;;10.75;8.30;;;;;;;;;;4796321;29;20142;-73
2021/08/24 09:45:55;;;;;;;13.85;8.88;;;;;;;;;;4796402;29;20037;-74
2021/08/24 09:48:20;;;;;;;9.88;7.38;;;;;;;;;;4797579;29;20050;-73
2021/08/24 09:50:46;;;;;;;12.05;9.32;;;;;;;;;;4795211;29;20514;-73
2021/08/24 09:53:34;;;;;;;10.98;7.65;;;;;;;;;;4785880;29;20039;-75
2021/08/24 09:56:07;;;;;;;15.10;9.15;;;;;;;;;;4787574;29;20030;-74
2021/08/24 09:58:36;;;;;;;12.77;8.77;;;;;;;;;;4796566;29;20119;-75
2021/08/24 10:01:06;;;;;;;10.05;7.75;;;;;;;;;;4780384;29;20031;-73
2021/08/24 10:03:46;;;;;;;18.65;9.05;;;;;;;;;;4784014;29;20034;-74
2021/08/24 10:06:25;;;;;;;13.18;9.45;;;;;;;;;;4793614;29;20037;-74
2021/08/24 10:08:56;;;;;;;17.13;9.80;;;;;;;;;;4781874;29;20050;-74
2021/08/24 10:11:28;;;;;;;14.43;8.95;;;;;;;;;;4781221;29;20100;-74
2021/08/24 10:14:13;;;;;;;14.35;9.27;;;;;;;;;;4787670;29;20046;-73
2021/08/24 10:16:41;;;;;;;18.38;8.88;;;;;;;;;;4794556;29;20031;-74
2021/08/24 10:19:22;;;;;;;11.30;9.38;;;;;;;;;;4778614;29;20034;-74
2021/08/24 10:21:50;;;;;;;12.60;9.00;;;;;;;;;;4794230;29;20094;-75
2021/08/24 10:24:44;;;;;;;14.25;7.90;;;;;;;;;;4803690;29;20141;-74
2021/08/24 10:27:23;;;;;;;12.80;8.25;;;;;;;;;;4778823;29;20038;-74
2021/08/24 10:29:59;;;;;;;11.65;8.50;;;;;;;;;;4778458;29;20046;-74
2021/08/24 10:32:35;;;;;;;12.25;8.00;;;;;;;;;;4797212;29;20045;-75
2021/08/24 10:35:18;;;;;;;12.00;7.40;;;;;;;;;;4795000;29;20035;-73
2021/08/24 10:37:47;;;;;;;18.02;9.90;;;;;;;;;;4796803;29;20053;-73
2021/08/24 10:40:44;;;;;;;19.38;9.85;;;;;;;;;;4792758;29;20537;-74
2021/08/24 10:43:09;;;;;;;18.13;8.20;;;;;;;;;;4781081;29;20496;-76
2021/08/24 10:45:40;;;;;;;13.65;8.85;;;;;;;;;;4802967;29;20088;-73
2021/08/24 10:48:16;;;;;;;15.45;9.75;;;;;;;;;;4796406;29;20030;-73
2021/08/24 10:51:00;;;;;;;14.98;9.05;;;;;;;;;;4785228;29;20087;-74
2021/08/24 10:53:45;;;;;;;28.00;11.52;;;;;;;;;;4787422;29;20069;-74
2021/08/24 10:56:36;;;;;;;17.13;9.27;;;;;;;;;;4797621;29;20039;-74
2021/08/24 10:59:09;;;;;;;11.18;8.27;;;;;;;;;;4795184;29;20065;-74
2021/08/24 11:01:51;;;;;;;10.27;7.57;;;;;;;;;;4793791;29;20089;-73
2021/08/24 11:04:23;;;;;;;15.30;8.48;;;;;;;;;;4784667;29;20133;-74
2021/08/24 11:06:59;;;;;;;;;;;;;;;;;;4793254;29;20184;-73
2021/08/24 11:09:53;;;;;;;13.48;7.85;;;;;;;;;;4791268;29;19929;-73
2021/08/24 11:12:57;;;;;;;14.52;8.30;;;;;;;;;;4781932;29;20079;-75
2021/08/24 11:15:44;;;;;;;14.35;8.48;;;;;;;;;;4801943;29;20062;-73
2021/08/24 11:18:31;;;;;;;10.32;7.32;;;;;;;;;;4803152;29;20038;-74
2021/08/24 11:21:00;;;;;;;14.07;7.68;;;;;;;;;;4792368;29;20186;-75
2021/08/24 11:23:58;;;;;;;17.88;9.10;;;;;;;;;;4786707;29;20070;-75
2021/08/24 11:26:49;;;;;;;10.15;8.05;;;;;;;;;;4755421;29;20066;-74
2021/08/24 11:29:52;;;;;;;14.10;10.07;;;;;;;;;;4805315;29;20519;-74
2021/08/24 11:32:21;;;;;;;19.00;8.27;;;;;;;;;;4769494;29;20058;-73
2021/08/24 11:34:55;;;;;;;17.08;10.07;;;;;;;;;;4795219;29;20184;-75
2021/08/24 11:37:36;;;;;;;12.38;8.02;;;;;;;;;;4795318;29;21182;-73
2021/08/24 11:40:09;;;;;;;10.93;7.50;;;;;;;;;;4785032;29;20042;-74
2021/08/24 11:42:40;;;;;;;14.85;8.63;;;;;;;;;;4784546;29;20107;-74
2021/08/24 11:45:24;;;;;;;12.45;8.82;;;;;;;;;;4798354;29;20031;-74
2021/08/24 11:47:56;;;;;;;18.95;10.45;;;;;;;;;;4787488;29;20063;-74
2021/08/24 11:51:08;;;;;;;23.30;10.25;;;;;;;;;;4773429;29;20039;-73
2021/08/24 11:53:49;;;;;;;16.90;9.27;;;;;;;;;;4784432;29;20039;-74
2021/08/24 11:56:21;;;;;;;;;;;;;;;;;;4796176;29;20042;-75
2021/08/24 11:58:48;;;;;;;13.73;8.98;;;;;;;;;;4787383;29;19981;-75
2021/08/24 12:01:19;;;;;;;14.57;8.23;;;;;;;;;;4784559;29;20035;-74
2021/08/24 12:03:57;;;;;;;;;;;;;;;;;;4800461;29;20031;-74
2021/08/24 12:06:27;;;;;;;13.52;8.23;;;;;;;;;;4790723;29;19921;-73
2021/08/24 12:08:57;;;;;;;12.98;7.85;;;;;;;;;;4807536;29;20109;-74
2021/08/24 12:11:49;;;;;;;11.00;7.28;;;;;;;;;;4785025;29;20084;-75
2021/08/24 12:14:55;;;;;;;17.73;8.05;;;;;;;;;;4814531;29;20038;-73
2021/08/24 12:17:27;;;;;;;13.77;9.07;;;;;;;;;;4783724;29;20204;-74
2021/08/24 12:20:04;;;;;;;12.00;7.88;;;;;;;;;;4788875;29;20046;-74
2021/08/24 12:22:56;;;;;;;17.60;8.50;;;;;;;;;;4783997;29;20567;-73
2021/08/24 12:25:34;;;;;;;16.05;9.05;;;;;;;;;;4797820;29;20030;-74
2021/08/24 12:28:16;;;;;;;16.23;8.60;;;;;;;;;;4802537;29;20085;-74
2021/08/24 12:30:58;;;;;;;14.63;9.23;;;;;;;;;;4781216;29;20110;-74
2021/08/24 12:33:33;;;;;;;21.75;10.35;;;;;;;;;;4796835;29;20038;-74
2021/08/24 12:36:20;;;;;;;13.77;7.80;;;;;;;;;;4795515;29;20126;-73
2021/08/24 12:38:46;;;;;;;15.20;9.43;;;;;;;;;;4782346;29;20049;-73
2021/08/24 12:41:35;;;;;;;16.60;10.10;;;;;;;;;;4774859;29;20146;-76
2021/08/24 12:44:13;;;;;;;13.98;10.10;;;;;;;;;;4768446;29;20104;-76
2021/08/24 12:46:58;;;;;;;16.25;10.95;;;;;;;;;;4780107;29;20036;-74
2021/08/24 12:49:30;;;;;;;16.45;11.18;;;;;;;;;;4777900;29;20120;-75
2021/08/24 12:51:57;;;;;;;24.70;12.10;;;;;;;;;;4778735;29;20809;-73
2021/08/24 12:54:50;;;;;;;22.55;13.15;;;;;;;;;;4779814;29;20035;-75
2021/08/24 12:57:36;;;;;;;19.50;12.07;;;;;;;;;;4776165;29;20108;-72
2021/08/24 13:00:22;;;;;;;18.17;11.57;;;;;;;;;;4774868;30;20047;-74
2021/08/24 13:03:03;;;;;;;19.52;12.80;;;;;;;;;;4777139;30;20045;-75
2021/08/24 13:05:35;;;;;;;21.33;12.18;;;;;;;;;;4780108;30;20059;-74
2021/08/24 13:08:09;;;;;;;20.15;13.35;;;;;;;;;;4776763;29;20047;-73
2021/08/24 13:10:50;;;;;;;20.75;12.98;;;;;;;;;;4774956;29;20115;-73
2021/08/24 13:13:28;;;;;;;21.23;13.50;;;;;;;;;;4775938;30;20096;-75
2021/08/24 13:16:00;;;;;;;23.45;13.18;;;;;;;;;;4776011;29;20036;-74
2021/08/24 13:18:30;;;;;;;18.52;12.32;;;;;;;;;;4777391;30;20055;-74
2021/08/24 13:21:21;;;;;;;18.35;12.20;;;;;;;;;;4772208;29;21380;-74
2021/08/24 13:23:50;;;;;;;20.38;12.30;;;;;;;;;;4776944;29;20077;-73
2021/08/24 13:26:35;;;;;;;21.33;12.50;;;;;;;;;;4777877;29;20044;-75
2021/08/24 13:29:01;;;;;;;29.35;12.73;;;;;;;;;;4776103;29;20043;-73
2021/08/24 13:32:06;;;;;;;21.05;12.15;;;;;;;;;;4772925;30;20050;-73
2021/08/24 13:34:48;;;;;;;15.40;10.75;;;;;;;;;;4747937;30;20040;-75
2021/08/24 13:37:34;;;;;;;23.13;12.98;;;;;;;;;;4735354;30;20056;-74
2021/08/24 13:40:05;;;;;;;20.75;12.70;;;;;;;;;;4763380;30;20378;-73
2021/08/24 13:42:34;;;;;;;17.50;11.32;;;;;;;;;;4777942;29;20425;-74
2021/08/24 13:45:00;;;;;;;22.80;11.65;;;;;;;;;;4774441;30;20130;-75
2021/08/24 13:47:27;;;;;;;17.17;10.35;;;;;;;;;;4783885;29;20049;-73
2021/08/24 13:49:58;;;;;;;24.02;11.18;;;;;;;;;;4772613;30;20274;-73
2021/08/24 13:52:34;;;;;;;21.13;10.95;;;;;;;;;;4777563;30;20039;-74
2021/08/24 13:55:12;;;;;;;21.13;10.88;;;;;;;;;;4778957;29;20142;-72
2021/08/24 13:57:38;;;;;;;15.85;11.00;;;;;;;;;;4780798;29;20114;-74
2021/08/24 14:00:07;;;;;;;19.60;10.38;;;;;;;;;;4786438;29;20108;-74
2021/08/24 14:02:39;;;;;;;16.63;10.10;;;;;;;;;;4776241;29;20070;-76
2021/08/24 14:05:05;;;;;;;13.15;10.07;;;;;;;;;;4770631;30;20614;-73
2021/08/24 14:07:34;;;;;;;15.05;9.98;;;;;;;;;;4777633;29;20099;-74
2021/08/24 14:10:06;;;;;;;19.77;9.48;;;;;;;;;;4778439;29;20039;-74
2021/08/24 14:12:38;;;;;;;13.43;8.77;;;;;;;;;;4795194;29;20122;-74
2021/08/24 14:15:13;;;;;;;11.27;8.50;;;;;;;;;;4782677;29;20535;-74
2021/08/24 14:17:46;;;;;;;12.95;7.93;;;;;;;;;;4794887;29;20027;-74
2021/08/24 14:20:23;;;;;;;11.38;7.15;;;;;;;;;;4780119;29;20390;-76
2021/08/24 14:22:55;;;;;;;12.90;6.53;;;;;;;;;;4772521;29;20351;-73
2021/08/24 14:25:28;;;;;;;9.48;6.03;;;;;;;;;;4777428;29;20035;-75
2021/08/24 14:27:55;;;;;;;12.88;6.55;;;;;;;;;;4773485;29;20049;-74
2021/08/24 14:30:21;;;;;;;14.38;7.30;;;;;;;;;;4788887;29;20758;-74
2021/08/24 14:32:48;;;;;;;9.23;5.88;;;;;;;;;;4790903;29;20032;-76
2021/08/24 14:35:51;;;;;;;7.95;5.65;;;;;;;;;;4774200;29;20045;-76
2021/08/24 14:38:36;;;;;;;8.18;6.00;;;;;;;;;;4774037;30;20035;-74
2021/08/24 14:41:09;;;;;;;14.52;6.60;;;;;;;;;;4794409;29;20027;-75
2021/08/24 14:43:35;;;;;;;10.60;6.55;;;;;;;;;;4779209;30;20051;-74
2021/08/24 14:46:01;;;;;;;9.38;6.30;;;;;;;;;;4776228;29;20653;-73
2021/08/24 14:48:27;;;;;;;10.02;7.10;;;;;;;;;;4772747;29;20122;-74
2021/08/24 14:50:58;;;;;;;10.50;8.95;;;;;;;;;;4768144;29;20675;-72
2021/08/24 14:53:38;;;;;;;11.95;6.55;;;;;;;;;;4779656;29;20176;-74
2021/08/24 14:56:23;;;;;;;10.60;6.53;;;;;;;;;;4784428;29;20215;-74
2021/08/24 14:59:25;;;;;;;13.43;6.60;;;;;;;;;;4801499;29;20031;-74
2021/08/24 15:02:14;;;;;;;12.38;6.80;;;;;;;;;;4779066;30;20039;-75
2021/08/24 15:04:42;;;;;;;13.13;6.80;;;;;;;;;;4794564;29;20032;-74
2021/08/24 15:07:10;;;;;;;13.77;7.25;;;;;;;;;;4781406;29;20445;-74